Twinsburg, Ohio
Current Conditions -  °F | °C
As of 7:37 AM on Monday 20 Oct 2014 (Local Time) from KPOV Reporting Station
Overcast Overcast  
Wind Chill: 46°   Ceiling: 9000
Heat Index: 46°   Visibility: 10mi
Dew Point: 36°   Wind: 3mph
Humidity: 69%   Direction: 190°S
Pressure: 29.95"   Gusts: NA
Location:  41.31°N, 81.44°W
Report Text: KPOV 201137Z AUTO 19003KT 10SM OVC090 08/02 A2995 RMK AO2 T00780024
Loading
Personal Weather Stations






























Interactive Weather Map
Tropical Storm Tracking
New forecast layout! Learn more

10-Day Weather Forecast

Advertisements
Track Severe Weather on mobile